Overview Statistics Trail Chart Weather Telemetry Raw packets
 

This is the latest recevied weather packets stored in our database for station/object LU2DKV-10. If no packets are shown the sender has not sent any weather packets the latest 10 day(s).

<< 8 9 10 11 12 13 14 >>
Time Temp. Humidity Pressure Rain* Wind** Luminosity Snow
1788181863 15° C 87% 1014 hPa - - 0 W/m² -
1788180042 15.56° C 86% 1015 hPa - - 0 W/m² -
1788178218 15° C 88% 1014 hPa - - 0 W/m² -
1788176392 16.11° C 84% 1014 hPa - - 0 W/m² -
1788174570 14.44° C 93% 1015 hPa - - 0 W/m² -
1788172745 13.89° C 95% 1015 hPa - - 0 W/m² -
1788170926 13.89° C 95% 1015 hPa - - 0 W/m² -
1788170658 13.89° C 95% 1015 hPa - - 0 W/m² -
1788168836 13.33° C 96% 1014 hPa - - 0 W/m² -
1788167015 13.33° C 97% 1014 hPa - - 0 W/m² -
1788165186 13.89° C 96% 1014 hPa - - 0 W/m² -
1788163364 13.89° C 94% 1014 hPa - - 0 W/m² -
1788161543 14.44° C 91% 1013 hPa - - 0 W/m² -
1788159718 15° C 90% 1013 hPa - - 0 W/m² -
1788157863 15° C 90% 1014 hPa - - 0 W/m² -
1788156040 15° C 88% 1015 hPa - - 0 W/m² -
1788154218 15° C 86% 1015 hPa - - 0 W/m² -
1788152397 15° C 84% 1014 hPa - - 0 W/m² -
1788150575 15° C 81% 1015 hPa - - 0 W/m² -
1788148750 15° C 80% 1014 hPa - - 0 W/m² -
1788146929 15° C 79% 1014 hPa - - 0 W/m² -
1788145103 15° C 79% 1015 hPa - - 0 W/m² -
1788143282 15° C 76% 1017 hPa - - 0 W/m² -
1788141460 15° C 75% 1017 hPa - - 0 W/m² -
1788139635 15° C 74% 1015 hPa - - 0 W/m² -

* Rain since midnight (hover to see other rain measurements)
** Current wind speed in m/s (hover to see current wind gust speed)